sensor_id;sensor_type;location;lat;lon;timestamp;temperature;humidity
2465;DHT22;1244;54.326;10.074;2024-01-15T00:01:59;2.10;99.90
2465;DHT22;1244;54.326;10.074;2024-01-15T00:04:24;2.10;99.90
2465;DHT22;1244;54.326;10.074;2024-01-15T00:06:50;2.10;99.90
2465;DHT22;1244;54.326;10.074;2024-01-15T00:09:15;2.00;99.90
2465;DHT22;1244;54.326;10.074;2024-01-15T00:11:41;1.90;99.90
2465;DHT22;1244;54.326;10.074;2024-01-15T00:14:08;1.70;99.90
2465;DHT22;1244;54.326;10.074;2024-01-15T00:16:34;1.50;99.90
2465;DHT22;1244;54.326;10.074;2024-01-15T00:18:59;1.30;99.90
2465;DHT22;1244;54.326;10.074;2024-01-15T00:21:34;1.20;99.90
2465;DHT22;1244;54.326;10.074;2024-01-15T00:23:59;1.10;99.90
2465;DHT22;1244;54.326;10.074;2024-01-15T00:26:25;1.10;99.90
2465;DHT22;1244;54.326;10.074;2024-01-15T00:28:50;1.20;99.90
2465;DHT22;1244;54.326;10.074;2024-01-15T00:31:16;1.20;99.90
2465;DHT22;1244;54.326;10.074;2024-01-15T00:33:42;1.30;99.90
2465;DHT22;1244;54.326;10.074;2024-01-15T00:36:07;1.30;99.90
2465;DHT22;1244;54.326;10.074;2024-01-15T00:38:33;1.40;99.90
2465;DHT22;1244;54.326;10.074;2024-01-15T00:40:58;1.40;99.90
2465;DHT22;1244;54.326;10.074;2024-01-15T00:43:24;1.40;99.90
2465;DHT22;1244;54.326;10.074;2024-01-15T00:45:49;1.40;99.90
2465;DHT22;1244;54.326;10.074;2024-01-15T00:48:15;1.50;99.90
2465;DHT22;1244;54.326;10.074;2024-01-15T00:50:40;1.50;99.90
2465;DHT22;1244;54.326;10.074;2024-01-15T00:53:05;1.50;99.90
2465;DHT22;1244;54.326;10.074;2024-01-15T00:55:31;1.60;99.90
2465;DHT22;1244;54.326;10.074;2024-01-15T00:57:57;1.50;99.90
2465;DHT22;1244;54.326;10.074;2024-01-15T01:00:22;1.50;99.90
2465;DHT22;1244;54.326;10.074;2024-01-15T01:02:47;1.60;99.90
2465;DHT22;1244;54.326;10.074;2024-01-15T01:05:13;1.60;99.90
2465;DHT22;1244;54.326;10.074;2024-01-15T01:07:38;1.60;99.90
2465;DHT22;1244;54.326;10.074;2024-01-15T01:10:04;1.60;99.90
2465;DHT22;1244;54.326;10.074;2024-01-15T01:12:30;1.60;99.90
2465;DHT22;1244;54.326;10.074;2024-01-15T01:14:55;1.60;99.90
2465;DHT22;1244;54.326;10.074;2024-01-15T01:17:21;1.70;99.90
2465;DHT22;1244;54.326;10.074;2024-01-15T01:19:46;1.70;99.90
2465;DHT22;1244;54.326;10.074;2024-01-15T01:22:12;1.70;99.90
2465;DHT22;1244;54.326;10.074;2024-01-15T01:24:37;1.70;99.90
2465;DHT22;1244;54.326;10.074;2024-01-15T01:27:03;1.70;99.90
2465;DHT22;1244;54.326;10.074;2024-01-15T01:29:28;1.70;99.90
2465;DHT22;1244;54.326;10.074;2024-01-15T01:31:54;1.70;99.90
2465;DHT22;1244;54.326;10.074;2024-01-15T01:34:19;1.70;99.90
2465;DHT22;1244;54.326;10.074;2024-01-15T01:36:45;1.60;99.90
2465;DHT22;1244;54.326;10.074;2024-01-15T01:39:10;1.60;99.90
2465;DHT22;1244;54.326;10.074;2024-01-15T01:41:36;1.50;99.90
2465;DHT22;1244;54.326;10.074;2024-01-15T01:44:01;1.50;99.90
2465;DHT22;1244;54.326;10.074;2024-01-15T01:46:27;1.50;99.90
2465;DHT22;1244;54.326;10.074;2024-01-15T01:48:52;1.50;99.90
2465;DHT22;1244;54.326;10.074;2024-01-15T01:51:18;1.50;99.90
2465;DHT22;1244;54.326;10.074;2024-01-15T01:53:44;1.50;99.90
2465;DHT22;1244;54.326;10.074;2024-01-15T01:56:10;1.40;99.90
2465;DHT22;1244;54.326;10.074;2024-01-15T01:58:37;1.40;99.90
2465;DHT22;1244;54.326;10.074;2024-01-15T02:01:02;1.40;99.90
2465;DHT22;1244;54.326;10.074;2024-01-15T02:03:29;1.30;99.90
2465;DHT22;1244;54.326;10.074;2024-01-15T02:05:55;1.40;99.90
2465;DHT22;1244;54.326;10.074;2024-01-15T02:08:21;1.40;99.90
2465;DHT22;1244;54.326;10.074;2024-01-15T02:10:46;1.40;99.90
2465;DHT22;1244;54.326;10.074;2024-01-15T02:13:12;1.40;99.90
2465;DHT22;1244;54.326;10.074;2024-01-15T02:15:38;1.40;99.90
2465;DHT22;1244;54.326;10.074;2024-01-15T02:18:04;1.50;99.90
2465;DHT22;1244;54.326;10.074;2024-01-15T02:20:30;1.60;99.90
2465;DHT22;1244;54.326;10.074;2024-01-15T02:23:11;1.40;99.90
2465;DHT22;1244;54.326;10.074;2024-01-15T02:25:41;1.40;99.90
2465;DHT22;1244;54.326;10.074;2024-01-15T02:28:07;1.40;99.90
2465;DHT22;1244;54.326;10.074;2024-01-15T02:30:35;1.50;99.90
2465;DHT22;1244;54.326;10.074;2024-01-15T02:33:02;1.50;99.90
2465;DHT22;1244;54.326;10.074;2024-01-15T02:35:27;1.60;99.90
2465;DHT22;1244;54.326;10.074;2024-01-15T02:37:52;1.60;99.90
2465;DHT22;1244;54.326;10.074;2024-01-15T02:40:18;1.60;99.90
2465;DHT22;1244;54.326;10.074;2024-01-15T02:42:43;1.60;99.90
2465;DHT22;1244;54.326;10.074;2024-01-15T02:45:09;1.50;99.90
2465;DHT22;1244;54.326;10.074;2024-01-15T02:47:34;1.40;99.90
2465;DHT22;1244;54.326;10.074;2024-01-15T02:50:03;1.40;99.90
2465;DHT22;1244;54.326;10.074;2024-01-15T02:52:28;1.30;99.90
2465;DHT22;1244;54.326;10.074;2024-01-15T02:54:54;1.20;99.90
2465;DHT22;1244;54.326;10.074;2024-01-15T02:57:19;1.20;99.90
2465;DHT22;1244;54.326;10.074;2024-01-15T02:59:45;1.20;99.90
2465;DHT22;1244;54.326;10.074;2024-01-15T03:02:10;1.30;99.90
2465;DHT22;1244;54.326;10.074;2024-01-15T03:04:35;1.30;99.90
2465;DHT22;1244;54.326;10.074;2024-01-15T03:07:01;1.30;99.90
2465;DHT22;1244;54.326;10.074;2024-01-15T03:09:26;1.30;99.90
2465;DHT22;1244;54.326;10.074;2024-01-15T03:11:52;1.30;99.90
2465;DHT22;1244;54.326;10.074;2024-01-15T03:14:17;1.20;99.90
2465;DHT22;1244;54.326;10.074;2024-01-15T03:16:43;1.20;99.90
2465;DHT22;1244;54.326;10.074;2024-01-15T03:19:08;1.20;99.90
2465;DHT22;1244;54.326;10.074;2024-01-15T03:21:34;1.10;99.90
2465;DHT22;1244;54.326;10.074;2024-01-15T03:23:59;1.10;99.90
2465;DHT22;1244;54.326;10.074;2024-01-15T03:26:25;1.10;99.90
2465;DHT22;1244;54.326;10.074;2024-01-15T03:28:50;1.00;99.90
2465;DHT22;1244;54.326;10.074;2024-01-15T03:31:17;1.00;99.90
2465;DHT22;1244;54.326;10.074;2024-01-15T03:33:42;1.00;99.90
2465;DHT22;1244;54.326;10.074;2024-01-15T03:36:08;1.00;99.90
2465;DHT22;1244;54.326;10.074;2024-01-15T03:38:33;1.00;99.90
2465;DHT22;1244;54.326;10.074;2024-01-15T03:40:59;1.00;99.90
2465;DHT22;1244;54.326;10.074;2024-01-15T03:43:24;1.00;99.90
2465;DHT22;1244;54.326;10.074;2024-01-15T03:45:49;1.00;99.90
2465;DHT22;1244;54.326;10.074;2024-01-15T03:48:15;1.00;99.90
2465;DHT22;1244;54.326;10.074;2024-01-15T03:50:40;1.00;99.90
2465;DHT22;1244;54.326;10.074;2024-01-15T03:53:06;1.00;99.90
2465;DHT22;1244;54.326;10.074;2024-01-15T03:55:32;1.00;99.90
2465;DHT22;1244;54.326;10.074;2024-01-15T03:57:57;1.10;99.90
2465;DHT22;1244;54.326;10.074;2024-01-15T04:00:22;1.10;99.90
2465;DHT22;1244;54.326;10.074;2024-01-15T04:02:48;1.10;99.90
2465;DHT22;1244;54.326;10.074;2024-01-15T04:05:13;1.10;99.90
2465;DHT22;1244;54.326;10.074;2024-01-15T04:07:39;1.10;99.90
2465;DHT22;1244;54.326;10.074;2024-01-15T04:10:04;1.10;99.90
2465;DHT22;1244;54.326;10.074;2024-01-15T04:12:30;1.10;99.90
2465;DHT22;1244;54.326;10.074;2024-01-15T04:14:55;1.20;99.90
2465;DHT22;1244;54.326;10.074;2024-01-15T04:17:21;1.20;99.90
2465;DHT22;1244;54.326;10.074;2024-01-15T04:19:47;1.30;99.90
2465;DHT22;1244;54.326;10.074;2024-01-15T04:22:13;1.20;99.90
2465;DHT22;1244;54.326;10.074;2024-01-15T04:24:38;1.30;99.90
2465;DHT22;1244;54.326;10.074;2024-01-15T04:27:04;1.20;99.90
2465;DHT22;1244;54.326;10.074;2024-01-15T04:29:29;1.20;99.90
2465;DHT22;1244;54.326;10.074;2024-01-15T04:31:55;1.30;99.90
2465;DHT22;1244;54.326;10.074;2024-01-15T04:34:20;1.30;99.90
2465;DHT22;1244;54.326;10.074;2024-01-15T04:36:46;1.30;99.90
2465;DHT22;1244;54.326;10.074;2024-01-15T04:39:11;1.30;99.90
2465;DHT22;1244;54.326;10.074;2024-01-15T04:41:37;1.30;99.90
2465;DHT22;1244;54.326;10.074;2024-01-15T04:44:02;1.30;99.90
2465;DHT22;1244;54.326;10.074;2024-01-15T04:46:28;1.40;99.90
2465;DHT22;1244;54.326;10.074;2024-01-15T04:48:53;1.30;99.90
2465;DHT22;1244;54.326;10.074;2024-01-15T04:51:19;1.30;99.90
2465;DHT22;1244;54.326;10.074;2024-01-15T04:53:44;1.20;99.90
2465;DHT22;1244;54.326;10.074;2024-01-15T04:56:10;1.20;99.90
2465;DHT22;1244;54.326;10.074;2024-01-15T04:58:35;1.20;99.90
2465;DHT22;1244;54.326;10.074;2024-01-15T05:01:00;1.30;99.90
2465;DHT22;1244;54.326;10.074;2024-01-15T05:03:26;1.40;99.90
2465;DHT22;1244;54.326;10.074;2024-01-15T05:05:51;1.40;99.90
2465;DHT22;1244;54.326;10.074;2024-01-15T05:08:17;1.40;99.90
2465;DHT22;1244;54.326;10.074;2024-01-15T05:10:42;1.50;99.90
2465;DHT22;1244;54.326;10.074;2024-01-15T05:13:08;1.40;99.90
2465;DHT22;1244;54.326;10.074;2024-01-15T05:15:33;1.40;99.90
2465;DHT22;1244;54.326;10.074;2024-01-15T05:17:59;1.40;99.90
2465;DHT22;1244;54.326;10.074;2024-01-15T05:20:24;1.30;99.90
2465;DHT22;1244;54.326;10.074;2024-01-15T05:22:49;1.30;99.90
2465;DHT22;1244;54.326;10.074;2024-01-15T05:25:15;1.30;99.90
2465;DHT22;1244;54.326;10.074;2024-01-15T05:27:40;1.20;99.90
2465;DHT22;1244;54.326;10.074;2024-01-15T05:30:06;1.40;99.90
2465;DHT22;1244;54.326;10.074;2024-01-15T05:32:31;1.30;99.90
2465;DHT22;1244;54.326;10.074;2024-01-15T05:34:57;1.20;99.90
2465;DHT22;1244;54.326;10.074;2024-01-15T05:37:22;1.10;99.90
2465;DHT22;1244;54.326;10.074;2024-01-15T05:39:48;1.10;99.90
2465;DHT22;1244;54.326;10.074;2024-01-15T05:42:13;1.10;99.90
2465;DHT22;1244;54.326;10.074;2024-01-15T05:44:38;1.10;99.90
2465;DHT22;1244;54.326;10.074;2024-01-15T05:47:04;1.10;99.90
2465;DHT22;1244;54.326;10.074;2024-01-15T05:49:29;1.10;99.90
2465;DHT22;1244;54.326;10.074;2024-01-15T05:51:55;1.20;99.90
2465;DHT22;1244;54.326;10.074;2024-01-15T05:54:20;1.10;99.90
2465;DHT22;1244;54.326;10.074;2024-01-15T05:56:46;1.10;99.90
2465;DHT22;1244;54.326;10.074;2024-01-15T05:59:11;1.20;99.90
2465;DHT22;1244;54.326;10.074;2024-01-15T06:01:37;1.10;99.90
2465;DHT22;1244;54.326;10.074;2024-01-15T06:04:02;1.10;99.90
2465;DHT22;1244;54.326;10.074;2024-01-15T06:06:28;1.10;99.90
2465;DHT22;1244;54.326;10.074;2024-01-15T06:08:53;1.10;99.90
2465;DHT22;1244;54.326;10.074;2024-01-15T06:11:18;1.10;99.90
2465;DHT22;1244;54.326;10.074;2024-01-15T06:13:44;1.10;99.90
2465;DHT22;1244;54.326;10.074;2024-01-15T06:16:13;1.00;99.90
2465;DHT22;1244;54.326;10.074;2024-01-15T06:18:39;1.00;99.90
2465;DHT22;1244;54.326;10.074;2024-01-15T06:21:04;0.90;99.90
2465;DHT22;1244;54.326;10.074;2024-01-15T06:23:30;0.90;99.90
2465;DHT22;1244;54.326;10.074;2024-01-15T06:25:55;0.80;99.90
2465;DHT22;1244;54.326;10.074;2024-01-15T06:28:21;0.80;99.90
2465;DHT22;1244;54.326;10.074;2024-01-15T06:30:46;0.80;99.90
2465;DHT22;1244;54.326;10.074;2024-01-15T06:33:11;0.80;99.90
2465;DHT22;1244;54.326;10.074;2024-01-15T06:35:37;0.90;99.90
2465;DHT22;1244;54.326;10.074;2024-01-15T06:38:02;0.90;99.90
2465;DHT22;1244;54.326;10.074;2024-01-15T06:40:28;0.90;99.90
2465;DHT22;1244;54.326;10.074;2024-01-15T06:42:53;0.90;99.90
2465;DHT22;1244;54.326;10.074;2024-01-15T06:45:18;0.90;99.90
2465;DHT22;1244;54.326;10.074;2024-01-15T06:47:44;0.90;99.90
2465;DHT22;1244;54.326;10.074;2024-01-15T06:50:09;0.80;99.90
2465;DHT22;1244;54.326;10.074;2024-01-15T06:52:35;0.80;99.90
2465;DHT22;1244;54.326;10.074;2024-01-15T06:55:00;0.70;99.90
2465;DHT22;1244;54.326;10.074;2024-01-15T06:57:26;0.70;99.90
2465;DHT22;1244;54.326;10.074;2024-01-15T06:59:51;0.70;99.90
2465;DHT22;1244;54.326;10.074;2024-01-15T07:02:16;0.70;99.90
2465;DHT22;1244;54.326;10.074;2024-01-15T07:04:42;0.70;99.90
2465;DHT22;1244;54.326;10.074;2024-01-15T07:07:07;0.60;99.90
2465;DHT22;1244;54.326;10.074;2024-01-15T07:09:33;0.60;99.90
2465;DHT22;1244;54.326;10.074;2024-01-15T07:11:58;0.70;99.90
2465;DHT22;1244;54.326;10.074;2024-01-15T07:14:24;0.70;99.90
2465;DHT22;1244;54.326;10.074;2024-01-15T07:16:50;0.80;99.90
2465;DHT22;1244;54.326;10.074;2024-01-15T07:19:15;0.80;99.90
2465;DHT22;1244;54.326;10.074;2024-01-15T07:21:41;0.90;99.90
2465;DHT22;1244;54.326;10.074;2024-01-15T07:24:08;0.90;99.90
2465;DHT22;1244;54.326;10.074;2024-01-15T07:26:34;0.90;99.90
2465;DHT22;1244;54.326;10.074;2024-01-15T07:28:59;0.90;99.90
2465;DHT22;1244;54.326;10.074;2024-01-15T07:31:24;1.00;99.90
2465;DHT22;1244;54.326;10.074;2024-01-15T07:33:50;1.00;99.90
2465;DHT22;1244;54.326;10.074;2024-01-15T07:36:15;1.00;99.90
2465;DHT22;1244;54.326;10.074;2024-01-15T07:38:41;0.90;99.90
2465;DHT22;1244;54.326;10.074;2024-01-15T07:41:06;0.90;99.90
2465;DHT22;1244;54.326;10.074;2024-01-15T07:43:31;0.90;99.90
2465;DHT22;1244;54.326;10.074;2024-01-15T07:45:57;0.90;99.90
2465;DHT22;1244;54.326;10.074;2024-01-15T07:48:23;0.90;99.90
2465;DHT22;1244;54.326;10.074;2024-01-15T07:50:49;0.90;99.90
2465;DHT22;1244;54.326;10.074;2024-01-15T07:53:14;0.90;99.90
2465;DHT22;1244;54.326;10.074;2024-01-15T07:55:40;0.80;99.90
2465;DHT22;1244;54.326;10.074;2024-01-15T07:58:05;0.80;99.90
2465;DHT22;1244;54.326;10.074;2024-01-15T08:00:31;0.80;99.90
2465;DHT22;1244;54.326;10.074;2024-01-15T08:02:56;0.80;99.90
2465;DHT22;1244;54.326;10.074;2024-01-15T08:05:22;0.80;99.90
2465;DHT22;1244;54.326;10.074;2024-01-15T08:07:47;0.70;99.90
2465;DHT22;1244;54.326;10.074;2024-01-15T08:10:14;0.70;99.90
2465;DHT22;1244;54.326;10.074;2024-01-15T08:12:39;0.70;99.90
2465;DHT22;1244;54.326;10.074;2024-01-15T08:15:05;0.70;99.90
2465;DHT22;1244;54.326;10.074;2024-01-15T08:17:31;0.70;99.90
2465;DHT22;1244;54.326;10.074;2024-01-15T08:19:57;0.70;99.90
2465;DHT22;1244;54.326;10.074;2024-01-15T08:22:23;0.70;99.90
2465;DHT22;1244;54.326;10.074;2024-01-15T08:24:48;0.80;99.90
2465;DHT22;1244;54.326;10.074;2024-01-15T08:27:14;0.80;99.90
2465;DHT22;1244;54.326;10.074;2024-01-15T08:29:39;0.90;99.90
2465;DHT22;1244;54.326;10.074;2024-01-15T08:32:05;0.90;99.90
2465;DHT22;1244;54.326;10.074;2024-01-15T08:34:30;0.90;99.90
2465;DHT22;1244;54.326;10.074;2024-01-15T08:36:56;0.90;99.90
2465;DHT22;1244;54.326;10.074;2024-01-15T08:39:21;1.00;99.90
2465;DHT22;1244;54.326;10.074;2024-01-15T08:41:47;1.10;99.90
2465;DHT22;1244;54.326;10.074;2024-01-15T08:44:12;1.10;99.90
2465;DHT22;1244;54.326;10.074;2024-01-15T08:46:38;1.20;99.90
2465;DHT22;1244;54.326;10.074;2024-01-15T08:49:03;1.10;99.90
2465;DHT22;1244;54.326;10.074;2024-01-15T08:51:29;1.10;99.90
2465;DHT22;1244;54.326;10.074;2024-01-15T08:53:55;1.00;99.90
2465;DHT22;1244;54.326;10.074;2024-01-15T08:56:21;1.10;99.90
2465;DHT22;1244;54.326;10.074;2024-01-15T08:58:46;1.00;99.90
2465;DHT22;1244;54.326;10.074;2024-01-15T09:01:12;1.00;99.90
2465;DHT22;1244;54.326;10.074;2024-01-15T09:03:37;1.00;99.90
2465;DHT22;1244;54.326;10.074;2024-01-15T09:06:03;1.00;99.90
2465;DHT22;1244;54.326;10.074;2024-01-15T09:08:28;0.80;99.90
2465;DHT22;1244;54.326;10.074;2024-01-15T09:10:54;0.90;99.90
2465;DHT22;1244;54.326;10.074;2024-01-15T09:13:19;0.80;99.90
2465;DHT22;1244;54.326;10.074;2024-01-15T09:15:45;0.70;99.90
2465;DHT22;1244;54.326;10.074;2024-01-15T09:18:10;0.70;99.90
2465;DHT22;1244;54.326;10.074;2024-01-15T09:20:35;0.70;99.90
2465;DHT22;1244;54.326;10.074;2024-01-15T09:23:01;0.70;99.90
2465;DHT22;1244;54.326;10.074;2024-01-15T09:25:27;0.70;99.90
2465;DHT22;1244;54.326;10.074;2024-01-15T09:27:52;0.70;99.90
2465;DHT22;1244;54.326;10.074;2024-01-15T09:30:18;0.90;99.90
2465;DHT22;1244;54.326;10.074;2024-01-15T09:32:43;1.00;99.90
2465;DHT22;1244;54.326;10.074;2024-01-15T09:35:09;1.10;99.90
2465;DHT22;1244;54.326;10.074;2024-01-15T09:37:34;1.10;99.90
2465;DHT22;1244;54.326;10.074;2024-01-15T09:40:00;1.20;99.90
2465;DHT22;1244;54.326;10.074;2024-01-15T09:42:25;1.40;99.90
2465;DHT22;1244;54.326;10.074;2024-01-15T09:44:51;1.60;99.90
2465;DHT22;1244;54.326;10.074;2024-01-15T09:47:18;1.70;99.90
2465;DHT22;1244;54.326;10.074;2024-01-15T09:49:44;1.80;99.90
2465;DHT22;1244;54.326;10.074;2024-01-15T09:52:10;1.80;99.90
2465;DHT22;1244;54.326;10.074;2024-01-15T09:54:36;1.80;99.90
2465;DHT22;1244;54.326;10.074;2024-01-15T09:57:01;1.80;99.90
2465;DHT22;1244;54.326;10.074;2024-01-15T09:59:27;1.70;99.90
2465;DHT22;1244;54.326;10.074;2024-01-15T10:01:53;1.60;99.90
2465;DHT22;1244;54.326;10.074;2024-01-15T10:04:19;1.60;99.90
2465;DHT22;1244;54.326;10.074;2024-01-15T10:06:45;2.00;99.90
2465;DHT22;1244;54.326;10.074;2024-01-15T10:09:14;2.30;99.90
2465;DHT22;1244;54.326;10.074;2024-01-15T10:11:42;2.40;99.90
2465;DHT22;1244;54.326;10.074;2024-01-15T10:14:11;2.30;99.90
2465;DHT22;1244;54.326;10.074;2024-01-15T10:16:42;2.40;99.90
2465;DHT22;1244;54.326;10.074;2024-01-15T10:19:08;2.40;99.90
2465;DHT22;1244;54.326;10.074;2024-01-15T10:21:34;2.50;99.90
2465;DHT22;1244;54.326;10.074;2024-01-15T10:24:00;2.50;99.90
2465;DHT22;1244;54.326;10.074;2024-01-15T10:26:26;2.60;99.90
2465;DHT22;1244;54.326;10.074;2024-01-15T10:28:51;2.60;99.90
2465;DHT22;1244;54.326;10.074;2024-01-15T10:31:20;2.70;99.90
2465;DHT22;1244;54.326;10.074;2024-01-15T10:33:50;2.80;99.90
2465;DHT22;1244;54.326;10.074;2024-01-15T10:36:15;2.70;99.90
2465;DHT22;1244;54.326;10.074;2024-01-15T10:38:41;2.50;99.90
2465;DHT22;1244;54.326;10.074;2024-01-15T10:41:07;2.50;99.90
2465;DHT22;1244;54.326;10.074;2024-01-15T10:43:32;2.50;99.90
2465;DHT22;1244;54.326;10.074;2024-01-15T10:45:59;2.40;99.90
2465;DHT22;1244;54.326;10.074;2024-01-15T10:48:25;2.50;99.90
2465;DHT22;1244;54.326;10.074;2024-01-15T10:50:51;3.00;99.90
2465;DHT22;1244;54.326;10.074;2024-01-15T10:53:17;3.20;99.90
2465;DHT22;1244;54.326;10.074;2024-01-15T10:55:42;3.50;99.90
2465;DHT22;1244;54.326;10.074;2024-01-15T10:58:09;3.50;99.90
2465;DHT22;1244;54.326;10.074;2024-01-15T11:00:34;3.20;99.90
2465;DHT22;1244;54.326;10.074;2024-01-15T11:03:01;2.80;99.90
2465;DHT22;1244;54.326;10.074;2024-01-15T11:05:26;3.00;99.90
2465;DHT22;1244;54.326;10.074;2024-01-15T11:07:54;3.20;99.90
2465;DHT22;1244;54.326;10.074;2024-01-15T11:10:39;3.60;99.90
2465;DHT22;1244;54.326;10.074;2024-01-15T11:13:18;3.80;99.90
2465;DHT22;1244;54.326;10.074;2024-01-15T11:16:01;3.90;99.90
2465;DHT22;1244;54.326;10.074;2024-01-15T11:18:27;3.50;99.90
2465;DHT22;1244;54.326;10.074;2024-01-15T11:28:55;3.50;99.90
2465;DHT22;1244;54.326;10.074;2024-01-15T11:31:28;3.90;99.90
2465;DHT22;1244;54.326;10.074;2024-01-15T11:33:54;4.40;99.90
2465;DHT22;1244;54.326;10.074;2024-01-15T11:36:20;4.90;99.90
2465;DHT22;1244;54.326;10.074;2024-01-15T11:38:46;5.50;99.90
2465;DHT22;1244;54.326;10.074;2024-01-15T11:41:14;5.50;99.90
2465;DHT22;1244;54.326;10.074;2024-01-15T11:43:41;5.80;99.90
2465;DHT22;1244;54.326;10.074;2024-01-15T11:46:09;6.20;99.90
2465;DHT22;1244;54.326;10.074;2024-01-15T11:48:41;6.00;99.90
2465;DHT22;1244;54.326;10.074;2024-01-15T11:51:08;6.10;99.90
2465;DHT22;1244;54.326;10.074;2024-01-15T11:53:36;6.10;99.90
2465;DHT22;1244;54.326;10.074;2024-01-15T11:56:06;6.20;99.90
2465;DHT22;1244;54.326;10.074;2024-01-15T11:58:35;6.50;99.90
2465;DHT22;1244;54.326;10.074;2024-01-15T12:01:02;6.70;99.90
2465;DHT22;1244;54.326;10.074;2024-01-15T12:03:28;6.60;99.90
2465;DHT22;1244;54.326;10.074;2024-01-15T12:05:53;6.70;99.90
2465;DHT22;1244;54.326;10.074;2024-01-15T12:08:22;6.40;99.90
2465;DHT22;1244;54.326;10.074;2024-01-15T12:10:48;6.20;99.90
2465;DHT22;1244;54.326;10.074;2024-01-15T12:13:14;5.90;99.90
2465;DHT22;1244;54.326;10.074;2024-01-15T12:15:41;6.30;99.90
2465;DHT22;1244;54.326;10.074;2024-01-15T12:18:07;5.90;99.90
2465;DHT22;1244;54.326;10.074;2024-01-15T12:20:33;5.60;99.90
2465;DHT22;1244;54.326;10.074;2024-01-15T12:22:59;6.60;99.90
2465;DHT22;1244;54.326;10.074;2024-01-15T12:25:25;6.90;99.90
2465;DHT22;1244;54.326;10.074;2024-01-15T12:27:52;6.90;99.90
2465;DHT22;1244;54.326;10.074;2024-01-15T12:30:17;7.20;99.90
2465;DHT22;1244;54.326;10.074;2024-01-15T12:32:44;7.60;99.90
2465;DHT22;1244;54.326;10.074;2024-01-15T12:35:09;7.40;99.90
2465;DHT22;1244;54.326;10.074;2024-01-15T12:37:35;8.00;99.90
2465;DHT22;1244;54.326;10.074;2024-01-15T12:40:02;8.50;99.90
2465;DHT22;1244;54.326;10.074;2024-01-15T12:42:28;8.50;99.90
2465;DHT22;1244;54.326;10.074;2024-01-15T12:44:55;8.60;99.90
2465;DHT22;1244;54.326;10.074;2024-01-15T12:47:21;7.90;99.90
2465;DHT22;1244;54.326;10.074;2024-01-15T12:49:47;8.00;99.90
2465;DHT22;1244;54.326;10.074;2024-01-15T12:52:15;8.00;99.90
2465;DHT22;1244;54.326;10.074;2024-01-15T12:54:40;7.40;99.90
2465;DHT22;1244;54.326;10.074;2024-01-15T12:57:06;7.20;99.90
2465;DHT22;1244;54.326;10.074;2024-01-15T12:59:31;7.40;99.90
2465;DHT22;1244;54.326;10.074;2024-01-15T13:01:56;7.20;99.90
2465;DHT22;1244;54.326;10.074;2024-01-15T13:04:23;6.90;99.90
2465;DHT22;1244;54.326;10.074;2024-01-15T13:06:49;6.90;99.90
2465;DHT22;1244;54.326;10.074;2024-01-15T13:09:14;7.20;99.90
2465;DHT22;1244;54.326;10.074;2024-01-15T13:11:40;7.10;99.90
2465;DHT22;1244;54.326;10.074;2024-01-15T13:14:05;7.30;99.90
2465;DHT22;1244;54.326;10.074;2024-01-15T13:16:31;7.70;99.90
2465;DHT22;1244;54.326;10.074;2024-01-15T13:18:56;8.20;99.90
2465;DHT22;1244;54.326;10.074;2024-01-15T13:21:22;7.20;99.90
2465;DHT22;1244;54.326;10.074;2024-01-15T13:23:48;6.90;99.90
2465;DHT22;1244;54.326;10.074;2024-01-15T13:26:13;6.60;99.90
2465;DHT22;1244;54.326;10.074;2024-01-15T13:28:39;6.40;99.90
2465;DHT22;1244;54.326;10.074;2024-01-15T13:31:04;6.40;99.90
2465;DHT22;1244;54.326;10.074;2024-01-15T13:33:30;6.10;99.90
2465;DHT22;1244;54.326;10.074;2024-01-15T13:35:55;6.80;99.90
2465;DHT22;1244;54.326;10.074;2024-01-15T13:38:21;5.70;99.90
2465;DHT22;1244;54.326;10.074;2024-01-15T13:40:46;7.20;99.90
2465;DHT22;1244;54.326;10.074;2024-01-15T13:43:12;8.10;99.90
2465;DHT22;1244;54.326;10.074;2024-01-15T13:45:40;9.20;99.90
2465;DHT22;1244;54.326;10.074;2024-01-15T13:48:06;7.80;99.90
2465;DHT22;1244;54.326;10.074;2024-01-15T13:50:33;7.00;99.90
2465;DHT22;1244;54.326;10.074;2024-01-15T13:53:00;8.70;99.90
2465;DHT22;1244;54.326;10.074;2024-01-15T13:55:25;8.60;99.90
2465;DHT22;1244;54.326;10.074;2024-01-15T13:57:51;7.60;99.90
2465;DHT22;1244;54.326;10.074;2024-01-15T14:00:16;6.50;99.90
2465;DHT22;1244;54.326;10.074;2024-01-15T14:02:45;5.60;99.90
2465;DHT22;1244;54.326;10.074;2024-01-15T14:05:11;5.80;99.90
2465;DHT22;1244;54.326;10.074;2024-01-15T14:07:38;5.00;99.90
2465;DHT22;1244;54.326;10.074;2024-01-15T14:10:04;4.60;99.90
2465;DHT22;1244;54.326;10.074;2024-01-15T14:12:30;4.60;99.90
2465;DHT22;1244;54.326;10.074;2024-01-15T14:14:55;5.90;99.90
2465;DHT22;1244;54.326;10.074;2024-01-15T14:17:21;6.80;99.90
2465;DHT22;1244;54.326;10.074;2024-01-15T14:19:46;7.60;99.90
2465;DHT22;1244;54.326;10.074;2024-01-15T14:22:12;7.70;99.90
2465;DHT22;1244;54.326;10.074;2024-01-15T14:24:38;6.20;99.90
2465;DHT22;1244;54.326;10.074;2024-01-15T14:27:03;5.20;99.90
2465;DHT22;1244;54.326;10.074;2024-01-15T14:29:30;4.60;99.90
2465;DHT22;1244;54.326;10.074;2024-01-15T14:31:56;4.00;99.90
2465;DHT22;1244;54.326;10.074;2024-01-15T14:34:21;3.60;99.90
2465;DHT22;1244;54.326;10.074;2024-01-15T14:36:49;3.30;99.90
2465;DHT22;1244;54.326;10.074;2024-01-15T14:39:14;3.10;99.90
2465;DHT22;1244;54.326;10.074;2024-01-15T14:41:40;3.00;99.90
2465;DHT22;1244;54.326;10.074;2024-01-15T14:44:05;3.00;99.90
2465;DHT22;1244;54.326;10.074;2024-01-15T14:46:31;2.80;99.90
2465;DHT22;1244;54.326;10.074;2024-01-15T14:48:57;2.50;99.90
2465;DHT22;1244;54.326;10.074;2024-01-15T14:51:22;2.40;99.90
2465;DHT22;1244;54.326;10.074;2024-01-15T14:53:48;2.30;99.90
2465;DHT22;1244;54.326;10.074;2024-01-15T14:56:13;2.20;99.90
2465;DHT22;1244;54.326;10.074;2024-01-15T14:58:39;2.20;99.90
2465;DHT22;1244;54.326;10.074;2024-01-15T15:01:04;2.10;99.90
2465;DHT22;1244;54.326;10.074;2024-01-15T15:03:29;1.90;99.90
2465;DHT22;1244;54.326;10.074;2024-01-15T15:05:55;1.80;99.90
2465;DHT22;1244;54.326;10.074;2024-01-15T15:08:20;1.70;99.90
2465;DHT22;1244;54.326;10.074;2024-01-15T15:10:46;1.70;99.90
2465;DHT22;1244;54.326;10.074;2024-01-15T15:13:11;1.60;99.90
2465;DHT22;1244;54.326;10.074;2024-01-15T15:15:37;1.40;99.90
2465;DHT22;1244;54.326;10.074;2024-01-15T15:18:02;1.40;99.90
2465;DHT22;1244;54.326;10.074;2024-01-15T15:20:28;1.30;99.90
2465;DHT22;1244;54.326;10.074;2024-01-15T15:22:54;1.30;99.90
2465;DHT22;1244;54.326;10.074;2024-01-15T15:25:21;1.20;99.90
2465;DHT22;1244;54.326;10.074;2024-01-15T15:27:47;1.10;99.90
2465;DHT22;1244;54.326;10.074;2024-01-15T15:30:13;1.10;99.90
2465;DHT22;1244;54.326;10.074;2024-01-15T15:32:38;1.00;99.90
2465;DHT22;1244;54.326;10.074;2024-01-15T15:35:04;0.90;99.90
2465;DHT22;1244;54.326;10.074;2024-01-15T15:37:29;0.80;99.90
2465;DHT22;1244;54.326;10.074;2024-01-15T15:39:55;0.70;99.90
2465;DHT22;1244;54.326;10.074;2024-01-15T15:42:21;0.60;99.90
2465;DHT22;1244;54.326;10.074;2024-01-15T15:44:49;0.50;99.90
2465;DHT22;1244;54.326;10.074;2024-01-15T15:47:16;0.50;99.90
2465;DHT22;1244;54.326;10.074;2024-01-15T15:49:41;0.40;99.90
2465;DHT22;1244;54.326;10.074;2024-01-15T15:52:07;0.40;99.90
2465;DHT22;1244;54.326;10.074;2024-01-15T15:54:32;0.40;99.90
2465;DHT22;1244;54.326;10.074;2024-01-15T15:56:58;0.40;99.90
2465;DHT22;1244;54.326;10.074;2024-01-15T15:59:23;0.30;99.90
2465;DHT22;1244;54.326;10.074;2024-01-15T16:01:49;0.20;99.90